Time;durP1;ratioP1;P1;durP2;ratioP2;P2;SDS_P1;SDS_P2;PMS_P1;PMS_P2;Temp;Humidity;BMP_temperature;BMP_pressure;BME280_temperature;BME280_humidity;BME280_pressure;Samples;Min_cycle;Max_cycle;Signal;HPM_P1;HPM_P2
2021/12/02 00:00:41;;;;;;;4.75;2.08;;;15.10;73.00;;;;;;4150767;28;20057;-76
2021/12/02 00:02:44;;;;;;;5.57;1.80;;;15.10;73.00;;;;;;4143306;28;20334;-76
2021/12/02 00:04:50;;;;;;;4.00;1.98;;;15.10;73.00;;;;;;4148379;28;20080;-76
2021/12/02 00:06:53;;;;;;;4.50;1.80;;;15.00;73.10;;;;;;4150196;28;20109;-76
2021/12/02 00:08:57;;;;;;;2.75;1.40;;;15.10;73.00;;;;;;4141950;28;20117;-75
2021/12/02 00:11:00;;;;;;;4.22;2.13;;;15.10;73.10;;;;;;4146046;28;20070;-75
2021/12/02 00:13:03;;;;;;;4.50;1.75;;;15.00;73.00;;;;;;4157547;28;20065;-75
2021/12/02 00:15:17;;;;;;;3.58;1.80;;;15.00;73.10;;;;;;4128131;28;20142;-76
2021/12/02 00:17:26;;;;;;;5.13;1.90;;;15.00;73.00;;;;;;4132599;28;20043;-75
2021/12/02 00:22:00;;;;;;;5.57;1.90;;;15.00;73.10;;;;;;4156369;28;20058;-76
2021/12/02 00:24:06;;;;;;;4.43;1.92;;;15.00;73.20;;;;;;4144413;28;20046;-75
2021/12/02 00:26:12;;;;;;;4.07;1.77;;;15.00;73.10;;;;;;4153786;28;20080;-76
2021/12/02 00:28:16;;;;;;;4.43;2.00;;;15.00;73.20;;;;;;4158734;28;20109;-76
2021/12/02 00:30:21;;;;;;;6.63;2.17;;;15.00;73.20;;;;;;4143327;28;20046;-76
2021/12/02 00:32:26;;;;;;;7.13;2.13;;;15.00;73.10;;;;;;4152528;28;20101;-75
2021/12/02 00:34:30;;;;;;;3.95;1.90;;;15.00;73.30;;;;;;4142620;28;20101;-76
2021/12/02 00:36:36;;;;;;;3.40;1.90;;;14.90;73.10;;;;;;4144514;28;20089;-76
2021/12/02 00:38:41;;;;;;;6.25;2.40;;;14.90;73.20;;;;;;4158722;28;20120;-77
2021/12/02 00:40:45;;;;;;;3.72;1.77;;;14.90;73.20;;;;;;4157419;28;20300;-75
2021/12/02 00:42:49;;;;;;;5.43;2.17;;;14.90;73.10;;;;;;4151934;28;20060;-76
2021/12/02 00:44:53;;;;;;;4.10;2.17;;;14.90;73.20;;;;;;4143817;28;20093;-76
2021/12/02 00:47:01;;;;;;;4.07;1.90;;;14.90;73.20;;;;;;4145537;28;20042;-75
2021/12/02 00:49:11;;;;;;;5.35;2.00;;;14.90;73.20;;;;;;4141020;28;20358;-76
2021/12/02 00:51:15;;;;;;;3.75;2.05;;;14.90;73.20;;;;;;4152938;28;20144;-75
2021/12/02 00:53:20;;;;;;;4.68;2.15;;;14.90;73.20;;;;;;4137487;28;20070;-77
2021/12/02 00:55:26;;;;;;;4.57;2.08;;;14.80;73.10;;;;;;4141057;28;20062;-76
2021/12/02 00:57:30;;;;;;;4.90;2.08;;;14.90;73.20;;;;;;4140636;28;20117;-76
2021/12/02 00:59:33;;;;;;;4.77;2.10;;;14.90;73.20;;;;;;4125124;28;20066;-76
2021/12/02 01:01:38;;;;;;;3.58;2.10;;;14.90;73.20;;;;;;4151559;28;20543;-75
2021/12/02 01:03:45;;;;;;;3.85;1.73;;;14.90;73.30;;;;;;4148041;28;20097;-76
2021/12/02 01:05:49;;;;;;;5.70;2.28;;;14.80;73.20;;;;;;4124438;28;20066;-76
2021/12/02 01:07:52;;;;;;;3.50;1.70;;;14.80;73.20;;;;;;4120073;28;20062;-78
2021/12/02 01:09:56;;;;;;;4.05;1.80;;;14.80;73.20;;;;;;4156876;28;20045;-76
2021/12/02 01:12:00;;;;;;;6.43;2.05;;;14.80;73.20;;;;;;4152327;28;20062;-75
2021/12/02 01:14:04;;;;;;;5.70;2.30;;;14.80;73.20;;;;;;4149698;28;20101;-76
2021/12/02 01:16:07;;;;;;;6.50;2.40;;;14.80;73.20;;;;;;4140827;28;20047;-75
2021/12/02 01:18:10;;;;;;;5.22;1.95;;;14.80;73.20;;;;;;4145044;28;20042;-77
2021/12/02 01:20:14;;;;;;;4.60;2.15;;;14.80;73.20;;;;;;4124213;28;20118;-77
2021/12/02 01:22:18;;;;;;;6.82;2.30;;;14.80;73.20;;;;;;4127620;28;20050;-75
2021/12/02 01:24:22;;;;;;;4.18;1.85;;;14.80;73.20;;;;;;4116160;28;20122;-76
2021/12/02 01:26:28;;;;;;;3.75;1.88;;;14.80;73.30;;;;;;4140176;28;20062;-76
2021/12/02 01:28:32;;;;;;;4.30;2.00;;;14.70;73.20;;;;;;4153566;28;20065;-74
2021/12/02 01:30:35;;;;;;;4.33;2.00;;;14.70;73.30;;;;;;4124539;28;20073;-76
2021/12/02 01:32:39;;;;;;;4.82;1.90;;;14.70;73.20;;;;;;4144288;28;20053;-77
2021/12/02 01:34:46;;;;;;;3.72;1.83;;;14.70;73.20;;;;;;4132495;28;20046;-76
2021/12/02 01:36:52;;;;;;;8.45;2.28;;;14.70;73.30;;;;;;4140315;28;20061;-77
2021/12/02 01:38:55;;;;;;;4.13;2.00;;;14.70;73.30;;;;;;4127094;28;20075;-76
2021/12/02 01:41:00;;;;;;;4.43;2.25;;;14.70;73.20;;;;;;4156844;28;20137;-76
2021/12/02 01:43:05;;;;;;;5.25;2.22;;;14.70;73.30;;;;;;4150466;28;20058;-75
2021/12/02 01:45:15;;;;;;;4.35;2.03;;;14.70;73.30;;;;;;4150782;28;20114;-76
2021/12/02 01:47:22;;;;;;;5.10;1.95;;;14.70;73.40;;;;;;4156668;28;20052;-76
2021/12/02 01:49:32;;;;;;;5.30;2.08;;;14.70;73.40;;;;;;4152639;28;20108;-76
2021/12/02 01:51:40;;;;;;;5.93;2.13;;;14.70;73.40;;;;;;4140787;28;20062;-75
2021/12/02 01:53:51;;;;;;;4.15;1.92;;;14.70;73.40;;;;;;4145326;28;20097;-76
2021/12/02 01:55:54;;;;;;;4.35;2.17;;;14.70;73.40;;;;;;4149973;28;20121;-75
2021/12/02 01:58:02;;;;;;;6.22;2.50;;;14.60;73.30;;;;;;4142156;28;20348;-76
2021/12/02 02:00:10;;;;;;;4.55;2.22;;;14.60;73.30;;;;;;4130201;28;20053;-76
2021/12/02 02:02:17;;;;;;;5.15;2.17;;;14.60;73.40;;;;;;4141453;28;20109;-76
2021/12/02 02:04:23;;;;;;;4.45;2.10;;;14.60;73.40;;;;;;4147380;28;20069;-76
2021/12/02 02:06:27;;;;;;;;;;;14.60;73.30;;;;;;4155300;28;20113;-78
2021/12/02 02:08:30;;;;;;;4.00;1.85;;;14.60;73.40;;;;;;4155745;28;19941;-77
2021/12/02 02:10:36;;;;;;;4.43;2.00;;;14.60;73.40;;;;;;4145141;28;20306;-76
2021/12/02 02:12:39;;;;;;;4.82;2.22;;;14.60;73.40;;;;;;4155746;28;20061;-77
2021/12/02 02:14:43;;;;;;;4.03;2.10;;;14.60;73.40;;;;;;4151982;28;20826;-76
2021/12/02 02:16:48;;;;;;;3.38;1.77;;;14.60;73.40;;;;;;4141874;28;20053;-76
2021/12/02 02:18:53;;;;;;;4.05;1.80;;;14.60;73.40;;;;;;4125781;28;20398;-76
2021/12/02 02:21:03;;;;;;;5.38;1.92;;;14.60;73.40;;;;;;4128991;28;20104;-76
2021/12/02 02:23:09;;;;;;;4.85;2.08;;;14.60;73.50;;;;;;4154615;28;20112;-76
2021/12/02 02:25:14;;;;;;;4.57;2.10;;;14.60;73.40;;;;;;4144142;28;20096;-77
2021/12/02 02:27:17;;;;;;;5.45;2.25;;;14.50;73.40;;;;;;4155355;28;20065;-76
2021/12/02 02:29:22;;;;;;;4.55;2.13;;;14.60;73.40;;;;;;4151640;28;20046;-76
2021/12/02 02:31:28;;;;;;;5.28;2.00;;;14.50;73.50;;;;;;4124907;28;20346;-76
2021/12/02 02:33:39;;;;;;;4.47;1.98;;;14.50;73.40;;;;;;4141223;28;20053;-75
2021/12/02 02:35:43;;;;;;;4.70;2.13;;;14.50;74.00;;;;;;4145829;28;20065;-75
2021/12/02 02:37:47;;;;;;;4.38;2.20;;;14.50;73.40;;;;;;4140210;28;20251;-76
2021/12/02 02:39:53;;;;;;;4.40;1.77;;;14.50;73.40;;;;;;4152044;28;20061;-76
2021/12/02 02:41:58;;;;;;;4.18;1.85;;;14.50;73.40;;;;;;4148171;28;20042;-76
2021/12/02 02:44:03;;;;;;;3.60;1.88;;;14.50;73.40;;;;;;4124968;28;20151;-76
2021/12/02 02:46:06;;;;;;;4.63;2.22;;;14.50;73.40;;;;;;4152816;28;20069;-77
2021/12/02 02:48:10;;;;;;;3.88;1.83;;;14.50;73.40;;;;;;4139535;28;20413;-76
2021/12/02 02:50:14;;;;;;;4.93;2.13;;;14.50;73.40;;;;;;4136187;28;20138;-76
2021/12/02 02:52:17;;;;;;;5.40;2.53;;;14.50;73.50;;;;;;4148629;28;20106;-75
2021/12/02 02:54:23;;;;;;;4.70;1.90;;;14.50;73.40;;;;;;4153400;28;20053;-76
2021/12/02 02:56:31;;;;;;;4.43;1.90;;;14.50;73.50;;;;;;4138778;28;20046;-75
2021/12/02 02:58:50;;;;;;;5.63;2.30;;;14.50;73.40;;;;;;4138812;28;20178;-76
2021/12/02 03:01:05;;;;;;;4.68;1.80;;;14.50;73.50;;;;;;4158407;28;20388;-76
2021/12/02 03:03:36;;;;;;;4.18;1.77;;;14.50;73.50;;;;;;4154851;28;20068;-75
2021/12/02 03:06:30;;;;;;;3.83;1.92;;;14.40;73.40;;;;;;4139870;28;20061;-76
2021/12/02 03:08:14;;;;;;;5.38;1.92;;;14.40;73.50;;;;;;4142676;28;20049;-76
2021/12/02 03:10:38;;;;;;;4.00;1.83;;;14.40;73.50;;;;;;4138550;28;20052;-76
2021/12/02 03:13:37;;;;;;;4.93;2.05;;;14.40;73.50;;;;;;4144347;28;20109;-76
2021/12/02 03:17:11;;;;;;;3.55;1.70;;;14.40;73.50;;;;;;4128518;28;20114;-76
2021/12/02 03:19:21;;;;;;;3.95;1.90;;;14.40;73.50;;;;;;4151852;28;20108;-77
2021/12/02 03:21:24;;;;;;;2.55;1.63;;;14.40;73.50;;;;;;4152273;28;20061;-76
2021/12/02 03:23:28;;;;;;;3.95;1.70;;;14.40;73.50;;;;;;4146482;28;20273;-76
2021/12/02 03:25:33;;;;;;;3.53;1.70;;;14.40;73.50;;;;;;4138154;28;20140;-75
2021/12/02 03:27:36;;;;;;;3.38;1.55;;;14.40;73.50;;;;;;4143124;28;20054;-76
2021/12/02 03:29:41;;;;;;;5.22;1.70;;;14.40;73.50;;;;;;4154740;28;20045;-77
2021/12/02 03:32:04;;;;;;;2.08;1.40;;;14.40;73.50;;;;;;4148221;28;20206;-76
2021/12/02 03:34:09;;;;;;;3.50;2.10;;;14.40;73.50;;;;;;4150143;28;20062;-75
2021/12/02 03:36:13;;;;;;;3.85;1.85;;;14.40;73.50;;;;;;4153017;28;20061;-77
2021/12/02 03:38:16;;;;;;;3.90;1.63;;;14.40;73.50;;;;;;4149421;28;20069;-76
2021/12/02 03:40:21;;;;;;;4.82;1.80;;;14.30;73.40;;;;;;4140692;28;20058;-76
2021/12/02 03:42:26;;;;;;;6.75;2.03;;;14.40;73.60;;;;;;4154361;28;20237;-76
2021/12/02 03:44:29;;;;;;;4.53;1.77;;;14.30;73.40;;;;;;4150148;28;20101;-76
2021/12/02 03:46:36;;;;;;;2.20;1.25;;;14.30;73.40;;;;;;4151943;28;20404;-76
2021/12/02 03:48:39;;;;;;;4.10;2.03;;;14.30;73.40;;;;;;4146959;28;20145;-75
2021/12/02 03:50:42;;;;;;;3.22;1.60;;;14.30;73.40;;;;;;4152043;28;20042;-75
2021/12/02 03:52:45;;;;;;;3.22;1.42;;;14.30;73.40;;;;;;4150412;28;20065;-76
2021/12/02 03:54:48;;;;;;;4.20;1.60;;;14.30;73.40;;;;;;4155329;28;20124;-75
2021/12/02 03:56:52;;;;;;;5.75;1.90;;;14.30;73.40;;;;;;4140271;28;20361;-75
2021/12/02 03:58:56;;;;;;;2.53;1.30;;;14.30;73.40;;;;;;4155686;28;20061;-77
2021/12/02 04:00:59;;;;;;;3.38;1.50;;;14.30;73.40;;;;;;4155551;28;20298;-75
2021/12/02 04:03:02;;;;;;;5.07;1.85;;;14.30;73.30;;;;;;4149306;28;20105;-75
2021/12/02 04:05:06;;;;;;;5.85;1.92;;;14.30;73.30;;;;;;4139764;28;20358;-76
2021/12/02 04:07:10;;;;;;;3.95;1.63;;;14.30;73.30;;;;;;4128537;28;20065;-76
2021/12/02 04:09:21;;;;;;;3.60;1.33;;;14.20;73.20;;;;;;4144446;28;20263;-76
2021/12/02 04:11:37;;;;;;;5.60;1.65;;;14.20;73.20;;;;;;4154538;28;20546;-76
2021/12/02 04:13:59;;;;;;;3.78;1.30;;;14.20;73.10;;;;;;4150396;28;20108;-76
2021/12/02 04:16:13;;;;;;;4.50;1.40;;;14.20;73.10;;;;;;4139239;28;20065;-76
2021/12/02 04:18:16;;;;;;;6.55;1.70;;;14.20;73.20;;;;;;4142931;28;20110;-76
2021/12/02 04:20:22;;;;;;;3.90;1.33;;;14.20;73.10;;;;;;4139296;28;20286;-76
2021/12/02 04:22:25;;;;;;;5.55;1.42;;;14.20;73.10;;;;;;4140371;28;20125;-76
2021/12/02 04:24:28;;;;;;;6.50;1.65;;;14.20;73.00;;;;;;4140770;28;20092;-75
2021/12/02 04:26:31;;;;;;;5.97;1.70;;;14.20;73.00;;;;;;4155506;28;20113;-76
2021/12/02 04:28:35;;;;;;;3.78;1.40;;;14.20;73.00;;;;;;4151693;28;20364;-76
2021/12/02 04:30:38;;;;;;;3.88;1.35;;;14.20;72.90;;;;;;4144031;28;20119;-75
2021/12/02 04:32:42;;;;;;;4.22;1.70;;;14.20;72.90;;;;;;4141776;28;20105;-75
2021/12/02 04:34:45;;;;;;;4.30;1.50;;;14.20;72.80;;;;;;4151375;28;20042;-77
2021/12/02 04:36:49;;;;;;;3.38;1.38;;;14.20;72.80;;;;;;4121512;28;20067;-76
2021/12/02 04:38:52;;;;;;;4.20;1.30;;;14.10;72.70;;;;;;4128805;28;20173;-76
2021/12/02 04:40:56;;;;;;;2.55;1.35;;;14.10;72.70;;;;;;4142576;28;20109;-75
2021/12/02 04:42:59;;;;;;;3.58;1.20;;;14.10;72.70;;;;;;4140851;28;20080;-76
2021/12/02 04:45:02;;;;;;;3.65;1.25;;;14.10;72.60;;;;;;4132720;28;20411;-76
2021/12/02 04:47:05;;;;;;;3.85;1.45;;;14.10;72.50;;;;;;4123947;28;20067;-76
2021/12/02 04:49:10;;;;;;;3.45;1.42;;;14.10;72.50;;;;;;4144415;28;20429;-75
2021/12/02 04:51:13;;;;;;;4.78;1.88;;;14.10;72.40;;;;;;4154108;28;20101;-75
2021/12/02 04:53:16;;;;;;;5.80;1.70;;;14.10;72.30;;;;;;4156572;28;20070;-76
2021/12/02 04:55:21;;;;;;;4.50;1.33;;;14.10;72.30;;;;;;4145571;28;20074;-76
2021/12/02 04:57:24;;;;;;;7.47;1.70;;;14.10;72.30;;;;;;4156875;28;20294;-77
2021/12/02 04:59:27;;;;;;;6.15;1.55;;;14.10;72.20;;;;;;4151454;28;20102;-76
2021/12/02 05:01:30;;;;;;;3.33;1.38;;;14.10;72.20;;;;;;4141372;28;20362;-76
2021/12/02 05:03:33;;;;;;;3.97;1.20;;;14.00;72.00;;;;;;4142430;28;20066;-75
2021/12/02 05:05:38;;;;;;;5.18;1.40;;;14.00;72.00;;;;;;4153211;28;20121;-77
2021/12/02 05:07:41;;;;;;;3.80;1.25;;;14.00;72.50;;;;;;4126556;28;20047;-76
2021/12/02 05:09:45;;;;;;;5.35;1.40;;;14.00;72.00;;;;;;4115811;28;20250;-75
2021/12/02 05:11:48;;;;;;;6.35;1.92;;;14.00;72.00;;;;;;4136937;28;20054;-76
2021/12/02 05:13:51;;;;;;;5.68;1.75;;;14.00;71.80;;;;;;4158773;28;20390;-76
2021/12/02 05:15:54;;;;;;;6.03;1.58;;;14.00;71.80;;;;;;4152135;28;20058;-76
2021/12/02 05:17:58;;;;;;;6.40;2.15;;;14.00;71.80;;;;;;4144247;28;20046;-75
2021/12/02 05:20:02;;;;;;;5.28;1.30;;;14.00;71.80;;;;;;4135774;28;20070;-77
2021/12/02 05:22:08;;;;;;;4.82;1.85;;;14.00;71.90;;;;;;4151674;28;20069;-75
2021/12/02 05:24:11;;;;;;;7.28;1.70;;;14.00;71.70;;;;;;4142566;28;20052;-76
2021/12/02 05:26:14;;;;;;;5.05;1.20;;;14.00;71.70;;;;;;4152652;28;20061;-75
2021/12/02 05:28:18;;;;;;;4.45;1.30;;;14.00;71.70;;;;;;4140359;28;20118;-75
2021/12/02 05:30:21;;;;;;;5.32;1.63;;;14.00;72.40;;;;;;4146398;28;20112;-75
2021/12/02 05:32:24;;;;;;;4.50;1.42;;;14.00;71.70;;;;;;4147642;28;20065;-76
2021/12/02 05:34:27;;;;;;;5.07;1.45;;;13.90;71.60;;;;;;4140369;28;20133;-76
2021/12/02 05:36:30;;;;;;;5.97;1.50;;;13.90;71.60;;;;;;4151253;28;20351;-75
2021/12/02 05:38:35;;;;;;;7.30;1.48;;;13.90;71.50;;;;;;4140340;28;20121;-74
2021/12/02 05:40:38;;;;;;;;;;;13.90;71.60;;;;;;4146633;28;20097;-75
2021/12/02 05:42:41;;;;;;;6.40;1.63;;;13.90;71.50;;;;;;4146680;28;19961;-76
2021/12/02 05:44:45;;;;;;;6.15;1.80;;;13.90;71.50;;;;;;4139702;28;20342;-76
2021/12/02 05:46:49;;;;;;;5.28;1.48;;;13.90;71.50;;;;;;4144926;28;20080;-75
2021/12/02 05:48:52;;;;;;;6.47;2.05;;;13.90;72.10;;;;;;4157099;28;20074;-76
2021/12/02 05:50:55;;;;;;;6.78;1.50;;;13.90;71.40;;;;;;4152359;28;20057;-76
2021/12/02 05:52:58;;;;;;;6.88;1.67;;;13.90;71.40;;;;;;4148234;28;20077;-75
2021/12/02 05:55:03;;;;;;;5.05;1.88;;;13.90;71.40;;;;;;4139682;28;20110;-75
2021/12/02 05:57:06;;;;;;;5.00;1.65;;;13.90;71.40;;;;;;4139280;28;20330;-75
2021/12/02 05:59:10;;;;;;;5.40;1.50;;;13.80;71.30;;;;;;4157187;28;20068;-75
2021/12/02 06:01:13;;;;;;;5.65;1.88;;;13.90;71.40;;;;;;4152713;28;20342;-76
2021/12/02 06:03:17;;;;;;;6.75;1.70;;;13.80;71.30;;;;;;4149127;28;20046;-76
2021/12/02 06:05:20;;;;;;;4.18;1.30;;;13.80;71.30;;;;;;4155940;28;20057;-76
2021/12/02 06:07:24;;;;;;;5.32;1.75;;;13.80;71.30;;;;;;4143728;28;20117;-77
2021/12/02 06:09:27;;;;;;;4.80;1.70;;;13.80;71.30;;;;;;4141152;28;20073;-75
2021/12/02 06:11:31;;;;;;;6.45;1.60;;;13.80;71.20;;;;;;4144125;28;20113;-76
2021/12/02 06:13:35;;;;;;;6.65;1.67;;;13.80;71.20;;;;;;4140717;28;20061;-75
2021/12/02 06:15:38;;;;;;;4.13;1.17;;;13.80;71.20;;;;;;4141108;28;20066;-77
2021/12/02 06:17:44;;;;;;;9.65;2.17;;;13.80;71.20;;;;;;4146479;28;20109;-77
2021/12/02 06:19:47;;;;;;;5.07;1.60;;;13.80;71.10;;;;;;4140648;28;20046;-76
2021/12/02 06:21:51;;;;;;;7.97;2.45;;;13.80;71.10;;;;;;4143433;28;20069;-76
2021/12/02 06:23:55;;;;;;;6.38;1.60;;;13.80;71.10;;;;;;4147433;28;20050;-77
2021/12/02 06:25:59;;;;;;;9.60;2.28;;;13.80;71.10;;;;;;4139333;28;20110;-76
2021/12/02 06:28:05;;;;;;;5.88;1.75;;;13.80;71.10;;;;;;4151676;28;20065;-76
2021/12/02 06:30:12;;;;;;;5.13;1.50;;;13.80;71.20;;;;;;4139144;28;20062;-75
2021/12/02 06:32:15;;;;;;;6.78;1.90;;;13.70;71.10;;;;;;4143026;28;20112;-76
2021/12/02 06:34:18;;;;;;;4.20;1.42;;;13.80;71.10;;;;;;4146298;28;20338;-76
2021/12/02 06:36:21;;;;;;;4.40;1.67;;;13.70;71.00;;;;;;4154745;28;20359;-76
2021/12/02 06:38:34;;;;;;;5.38;1.60;;;13.70;71.00;;;;;;4143900;28;20125;-76
2021/12/02 06:40:39;;;;;;;7.32;1.75;;;13.70;71.10;;;;;;4155007;28;20062;-75
2021/12/02 06:42:42;;;;;;;5.25;1.70;;;13.70;71.10;;;;;;4150977;28;20062;-76
2021/12/02 06:44:46;;;;;;;7.60;1.95;;;13.70;71.00;;;;;;4148093;28;20057;-77
2021/12/02 06:46:49;;;;;;;5.18;1.83;;;13.70;71.00;;;;;;4155759;28;20483;-76
2021/12/02 06:48:52;;;;;;;6.68;2.22;;;13.70;71.00;;;;;;4149612;28;20050;-76
2021/12/02 06:50:55;;;;;;;6.63;1.90;;;13.70;71.00;;;;;;4140213;28;20402;-76
2021/12/02 06:52:58;;;;;;;7.03;1.92;;;13.70;71.00;;;;;;4133571;28;20066;-75
2021/12/02 06:55:02;;;;;;;4.20;1.60;;;13.70;71.00;;;;;;4148037;28;20297;-75
2021/12/02 06:57:06;;;;;;;8.20;2.20;;;13.70;71.10;;;;;;4124099;28;20127;-76
2021/12/02 06:59:14;;;;;;;5.95;1.83;;;13.70;71.00;;;;;;4156630;28;20105;-76
2021/12/02 07:01:19;;;;;;;9.75;2.50;;;13.70;70.90;;;;;;4150642;28;20061;-77
2021/12/02 07:03:22;;;;;;;10.10;2.60;;;13.70;70.90;;;;;;4153629;28;20062;-76
2021/12/02 07:05:29;;;;;;;4.55;1.65;;;13.70;70.90;;;;;;4133283;28;20069;-75
2021/12/02 07:07:36;;;;;;;6.18;1.90;;;13.70;70.90;;;;;;4155926;28;20108;-76
2021/12/02 07:09:39;;;;;;;7.68;1.80;;;13.60;70.80;;;;;;4151870;28;20105;-76
2021/12/02 07:11:43;;;;;;;10.07;2.22;;;13.60;70.80;;;;;;4140834;28;20065;-75
2021/12/02 07:13:49;;;;;;;5.07;1.73;;;13.60;70.80;;;;;;4143605;28;20073;-75
2021/12/02 07:15:53;;;;;;;6.28;1.60;;;13.60;70.80;;;;;;4150881;28;20559;-75
2021/12/02 07:18:00;;;;;;;7.53;2.10;;;13.60;70.80;;;;;;4148772;28;20133;-78
2021/12/02 07:20:05;;;;;;;5.15;1.50;;;13.60;70.80;;;;;;4152620;28;20401;-75
2021/12/02 07:22:08;;;;;;;6.30;1.70;;;13.60;70.80;;;;;;4154598;28;20089;-76
2021/12/02 07:24:13;;;;;;;6.88;2.05;;;13.60;70.70;;;;;;4149845;28;20342;-75
2021/12/02 07:26:41;;;;;;;6.65;1.70;;;13.60;70.70;;;;;;4152457;28;20110;-75
2021/12/02 07:28:44;;;;;;;5.57;1.80;;;13.60;70.70;;;;;;4153569;28;20141;-76
2021/12/02 07:30:52;;;;;;;4.60;2.00;;;13.60;70.70;;;;;;4144969;28;20088;-75
2021/12/02 07:32:57;;;;;;;4.70;1.92;;;13.60;70.70;;;;;;4155471;28;20408;-77
2021/12/02 07:35:02;;;;;;;;;;;13.60;70.60;;;;;;4146799;28;20050;-75
2021/12/02 07:37:05;;;;;;;4.43;2.15;;;13.60;70.70;;;;;;4155054;28;20368;-76
2021/12/02 07:39:10;;;;;;;6.18;2.15;;;13.60;70.60;;;;;;4157168;28;20386;-75
2021/12/02 07:41:13;;;;;;;5.78;1.85;;;13.60;70.70;;;;;;4137721;28;20072;-75
2021/12/02 07:43:19;;;;;;;6.22;1.92;;;13.60;70.60;;;;;;4158518;28;20061;-75
2021/12/02 07:45:26;;;;;;;4.25;1.60;;;13.50;70.50;;;;;;4155593;28;20053;-75
2021/12/02 07:47:30;;;;;;;5.55;1.60;;;13.50;70.50;;;;;;4147552;28;20321;-76
2021/12/02 07:49:33;;;;;;;9.13;2.63;;;13.50;70.40;;;;;;4144484;28;20321;-76
2021/12/02 07:51:38;;;;;;;6.60;2.05;;;13.50;70.30;;;;;;4152674;28;20101;-76
2021/12/02 07:53:42;;;;;;;5.20;1.92;;;13.50;70.40;;;;;;4149784;28;20045;-77
2021/12/02 07:55:51;;;;;;;4.28;1.70;;;13.50;70.40;;;;;;4148175;28;20238;-75
2021/12/02 07:57:55;;;;;;;5.30;1.65;;;13.50;70.30;;;;;;4155864;28;20058;-75
2021/12/02 07:59:58;;;;;;;4.43;1.83;;;13.50;70.30;;;;;;4150731;28;20058;-76
2021/12/02 08:02:02;;;;;;;5.63;2.42;;;13.50;70.30;;;;;;4146799;28;20104;-76
2021/12/02 08:04:05;;;;;;;7.47;1.83;;;13.50;70.30;;;;;;4156566;28;20052;-75
2021/12/02 08:06:10;;;;;;;5.93;1.73;;;13.50;70.20;;;;;;4152459;28;20061;-75
2021/12/02 08:08:15;;;;;;;6.75;1.90;;;13.50;70.30;;;;;;4156042;28;20323;-76
2021/12/02 08:10:19;;;;;;;;;;;13.50;70.30;;;;;;4154902;28;20113;-75
2021/12/02 08:12:22;;;;;;;8.18;2.00;;;13.50;70.30;;;;;;4149907;28;19984;-75
2021/12/02 08:14:25;;;;;;;7.55;2.10;;;13.50;70.30;;;;;;4139264;28;20069;-77
2021/12/02 08:16:30;;;;;;;7.78;2.33;;;13.50;70.30;;;;;;4149970;28;20088;-77
2021/12/02 08:18:34;;;;;;;5.97;1.73;;;13.50;70.20;;;;;;4152329;28;20065;-75
2021/12/02 08:20:37;;;;;;;6.85;2.20;;;13.50;70.20;;;;;;4145174;28;20061;-77
2021/12/02 08:22:40;;;;;;;6.95;2.08;;;13.50;70.20;;;;;;4151147;28;20141;-75
2021/12/02 08:24:45;;;;;;;3.90;1.52;;;13.50;70.20;;;;;;4141214;28;20066;-75
2021/12/02 08:26:49;;;;;;;8.32;2.28;;;13.50;70.20;;;;;;4151264;28;20113;-75
2021/12/02 08:28:52;;;;;;;8.65;2.50;;;13.50;70.20;;;;;;4157399;28;20125;-75
2021/12/02 08:30:57;;;;;;;8.90;2.55;;;13.40;70.10;;;;;;4156591;28;20109;-77
2021/12/02 08:33:02;;;;;;;7.15;2.00;;;13.50;70.20;;;;;;4131363;28;20073;-76
2021/12/02 08:35:05;;;;;;;10.20;2.28;;;13.40;70.10;;;;;;4157702;28;20107;-76
2021/12/02 08:37:10;;;;;;;5.70;2.33;;;13.50;70.10;;;;;;4146340;28;20101;-76
2021/12/02 08:39:18;;;;;;;8.43;2.30;;;13.40;70.10;;;;;;4156168;28;20070;-75
2021/12/02 08:41:22;;;;;;;7.38;2.35;;;13.40;70.10;;;;;;4155502;28;20069;-76
2021/12/02 08:43:30;;;;;;;7.13;2.17;;;13.40;70.10;;;;;;4148979;28;20118;-76
2021/12/02 08:45:34;;;;;;;6.97;1.90;;;13.40;70.10;;;;;;4158374;28;20066;-76
2021/12/02 08:47:44;;;;;;;9.88;2.97;;;13.40;70.10;;;;;;4140590;28;20054;-75
2021/12/02 08:49:47;;;;;;;8.27;2.47;;;13.40;70.10;;;;;;4140895;28;20081;-75
2021/12/02 08:51:52;;;;;;;6.68;2.15;;;13.40;70.10;;;;;;4145731;28;20038;-75
2021/12/02 08:53:55;;;;;;;7.00;2.28;;;13.40;70.00;;;;;;4157886;28;20092;-76
2021/12/02 08:55:58;;;;;;;8.35;2.15;;;13.40;70.00;;;;;;4157862;28;20105;-75
2021/12/02 08:58:04;;;;;;;7.45;2.20;;;13.40;70.00;;;;;;4152561;28;20172;-76
2021/12/02 09:00:11;;;;;;;5.53;2.17;;;13.40;70.00;;;;;;4140872;28;20050;-76
2021/12/02 09:02:14;;;;;;;5.47;2.25;;;13.40;70.00;;;;;;4160437;28;20109;-75
2021/12/02 09:04:19;;;;;;;8.68;2.58;;;13.40;70.00;;;;;;4149247;28;20050;-75
2021/12/02 09:06:22;;;;;;;9.32;2.55;;;13.40;70.00;;;;;;4140438;28;20080;-75
2021/12/02 09:08:26;;;;;;;9.95;2.40;;;13.50;70.10;;;;;;4156339;28;20104;-76
2021/12/02 09:10:31;;;;;;;7.15;2.20;;;13.40;70.10;;;;;;4141567;28;20105;-76
2021/12/02 09:12:33;;;;;;;;;;;13.40;70.00;;;;;;4140978;28;20121;-76
2021/12/02 09:14:38;;;;;;;7.00;2.70;;;13.40;70.00;;;;;;4148007;28;19997;-75
2021/12/02 09:16:41;;;;;;;5.78;2.38;;;13.40;70.00;;;;;;4151820;28;20100;-75
2021/12/02 09:18:44;;;;;;;8.40;2.33;;;13.40;70.00;;;;;;4147578;28;20073;-75
2021/12/02 09:20:49;;;;;;;8.35;2.97;;;13.40;70.20;;;;;;4143064;28;20421;-74
2021/12/02 09:22:52;;;;;;;20.15;3.95;;;13.40;71.20;;;;;;4143027;28;20073;-79
2021/12/02 09:24:56;;;;;;;32.13;3.95;;;13.40;71.50;;;;;;4142912;28;20057;-73
2021/12/02 09:26:59;;;;;;;14.40;2.90;;;13.40;72.40;;;;;;4156352;28;20092;-75
2021/12/02 09:29:02;;;;;;;50.30;4.78;;;13.40;72.00;;;;;;4152936;28;20390;-77
2021/12/02 09:31:06;;;;;;;28.50;3.17;;;13.40;71.40;;;;;;4155798;28;20045;-74
2021/12/02 09:33:09;;;;;;;46.58;5.18;;;13.40;71.20;;;;;;4137518;28;20122;-72
2021/12/02 09:35:13;;;;;;;24.17;3.42;;;13.40;71.20;;;;;;4156964;28;20112;-73
2021/12/02 09:37:17;;;;;;;53.55;5.97;;;13.40;71.50;;;;;;4157206;28;20344;-75
2021/12/02 09:39:20;;;;;;;45.33;5.32;;;13.40;71.80;;;;;;4145973;28;20050;-75
2021/12/02 09:41:24;;;;;;;40.65;4.82;;;13.50;71.40;;;;;;4156789;28;20360;-76
2021/12/02 09:43:31;;;;;;;52.08;4.82;;;13.40;71.00;;;;;;4155032;28;20062;-76
2021/12/02 09:45:39;;;;;;;46.50;5.43;;;13.40;70.50;;;;;;4147752;28;20109;-75
2021/12/02 09:47:49;;;;;;;30.90;4.85;;;13.40;70.30;;;;;;4158697;28;20045;-77
2021/12/02 09:50:07;;;;;;;35.17;5.18;;;13.40;70.40;;;;;;4133135;28;20055;-80
2021/12/02 09:52:15;;;;;;;27.98;4.50;;;13.40;70.60;;;;;;4159468;28;20058;-76
2021/12/02 09:54:24;;;;;;;25.92;4.38;;;13.40;70.30;;;;;;4151892;28;20105;-73
2021/12/02 09:56:33;;;;;;;20.70;3.92;;;13.50;70.50;;;;;;4140656;28;20053;-76
2021/12/02 09:58:36;;;;;;;20.35;3.80;;;13.50;70.40;;;;;;4145032;28;20057;-75
2021/12/02 10:00:42;;;;;;;19.08;4.75;;;13.50;70.90;;;;;;4144634;28;20125;-74
2021/12/02 10:03:04;;;;;;;38.40;4.18;;;13.50;70.30;;;;;;4147220;28;20084;-73
2021/12/02 10:05:11;;;;;;;29.30;4.15;;;13.60;71.10;;;;;;4145178;28;20105;-76
2021/12/02 10:07:40;;;;;;;27.02;4.97;;;13.60;70.60;;;;;;4157509;28;20117;-77
2021/12/02 10:10:12;;;;;;;31.27;4.03;;;13.60;71.00;;;;;;4134482;28;20042;-78
2021/12/02 10:12:21;;;;;;;23.40;4.45;;;13.60;70.40;;;;;;4144911;28;20053;-76
2021/12/02 10:14:29;;;;;;;36.60;4.45;;;13.60;70.50;;;;;;4143473;28;20057;-75
2021/12/02 10:16:35;;;;;;;30.80;4.78;;;13.60;70.90;;;;;;4153308;28;20069;-74
2021/12/02 10:18:52;;;;;;;30.75;4.55;;;13.70;71.10;;;;;;4152407;28;20057;-76
2021/12/02 10:21:14;;;;;;;25.58;4.13;;;13.80;70.80;;;;;;4151634;28;20065;-71
2021/12/02 10:23:30;;;;;;;;;;;13.80;70.40;;;;;;4141772;28;20454;-75
2021/12/02 10:25:37;;;;;;;19.45;3.58;;;13.80;70.10;;;;;;4145237;28;20145;-72
2021/12/02 10:28:02;;;;;;;21.70;3.78;;;13.80;70.20;;;;;;4139559;28;20061;-71
2021/12/02 10:30:20;;;;;;;28.38;3.33;;;13.90;70.00;;;;;;4153194;28;20108;-71
2021/12/02 10:32:28;;;;;;;30.15;4.15;;;13.90;69.70;;;;;;4147335;28;20409;-72
2021/12/02 10:34:47;;;;;;;45.60;4.22;;;14.00;69.50;;;;;;4153402;28;20306;-73
2021/12/02 10:36:50;;;;;;;41.50;3.97;;;14.00;69.10;;;;;;4150564;28;20143;-72
2021/12/02 10:38:54;;;;;;;38.28;5.03;;;14.00;68.80;;;;;;4139307;28;20122;-71
2021/12/02 10:41:02;;;;;;;44.45;5.32;;;14.10;69.00;;;;;;4146988;28;20058;-74
2021/12/02 10:43:07;;;;;;;43.60;4.65;;;14.10;68.80;;;;;;4143141;28;20117;-74
2021/12/02 10:45:21;;;;;;;43.15;5.25;;;14.10;68.40;;;;;;4140535;28;20057;-75
2021/12/02 10:47:24;;;;;;;41.47;5.20;;;14.20;68.50;;;;;;4144870;28;20109;-75
2021/12/02 10:49:29;;;;;;;34.17;4.22;;;14.20;68.20;;;;;;4157244;28;20054;-76
2021/12/02 10:51:44;;;;;;;31.48;4.05;;;14.30;68.30;;;;;;4145688;28;20062;-76
2021/12/02 10:53:59;;;;;;;25.17;3.45;;;14.30;67.90;;;;;;4154221;28;20077;-75
2021/12/02 10:56:03;;;;;;;25.05;4.28;;;14.30;67.80;;;;;;4145988;28;20346;-74
2021/12/02 10:58:06;;;;;;;22.80;3.58;;;14.40;67.80;;;;;;4151050;28;20397;-75
2021/12/02 11:00:13;;;;;;;14.13;3.47;;;14.40;67.40;;;;;;4139372;28;20228;-74